sensor_id;sensor_type;location;lat;lon;timestamp;pressure;altitude;pressure_sealevel;temperature;humidity
9784;BME280;4931;44.874;-1.092;2023-03-03T00:00:56;101936.72;;;3.87;100.00
9784;BME280;4931;44.874;-1.092;2023-03-03T00:03:23;101924.81;;;3.81;100.00
9784;BME280;4931;44.874;-1.092;2023-03-03T00:05:50;101929.59;;;3.86;100.00
9784;BME280;4931;44.874;-1.092;2023-03-03T00:08:16;101927.53;;;3.88;100.00
9784;BME280;4931;44.874;-1.092;2023-03-03T00:10:42;101930.47;;;3.93;100.00
9784;BME280;4931;44.874;-1.092;2023-03-03T00:13:17;101927.53;;;3.94;100.00
9784;BME280;4931;44.874;-1.092;2023-03-03T00:15:43;101923.78;;;3.95;100.00
9784;BME280;4931;44.874;-1.092;2023-03-03T00:18:31;101923.97;;;3.94;100.00
9784;BME280;4931;44.874;-1.092;2023-03-03T00:20:59;101918.53;;;3.94;100.00
9784;BME280;4931;44.874;-1.092;2023-03-03T00:23:30;101919.19;;;3.96;100.00
9784;BME280;4931;44.874;-1.092;2023-03-03T00:26:00;101921.91;;;3.96;100.00
9784;BME280;4931;44.874;-1.092;2023-03-03T00:28:43;101919.19;;;3.96;100.00
9784;BME280;4931;44.874;-1.092;2023-03-03T00:31:33;101927.53;;;3.88;100.00
9784;BME280;4931;44.874;-1.092;2023-03-03T00:36:43;101916.25;;;3.91;100.00
9784;BME280;4931;44.874;-1.092;2023-03-03T00:39:30;101920.44;;;3.93;100.00
9784;BME280;4931;44.874;-1.092;2023-03-03T00:41:58;101922.72;;;3.96;100.00
9784;BME280;4931;44.874;-1.092;2023-03-03T00:47:35;101920.44;;;4.00;100.00
9784;BME280;4931;44.874;-1.092;2023-03-03T00:52:35;101918.34;;;4.02;100.00
9784;BME280;4931;44.874;-1.092;2023-03-03T00:55:01;101918.56;;;4.07;100.00
9784;BME280;4931;44.874;-1.092;2023-03-03T00:57:29;101919.19;;;4.03;100.00
9784;BME280;4931;44.874;-1.092;2023-03-03T00:59:54;101912.94;;;4.02;100.00
9784;BME280;4931;44.874;-1.092;2023-03-03T01:02:20;101911.84;;;4.03;100.00
9784;BME280;4931;44.874;-1.092;2023-03-03T01:04:49;101915.44;;;3.97;100.00
9784;BME280;4931;44.874;-1.092;2023-03-03T01:07:16;101915.44;;;3.97;100.00
9784;BME280;4931;44.874;-1.092;2023-03-03T01:09:42;101915.63;;;3.95;100.00
9784;BME280;4931;44.874;-1.092;2023-03-03T01:12:09;101907.88;;;3.99;100.00
9784;BME280;4931;44.874;-1.092;2023-03-03T01:14:35;101918.13;;;3.97;100.00
9784;BME280;4931;44.874;-1.092;2023-03-03T01:17:01;101914.56;;;4.03;100.00
9784;BME280;4931;44.874;-1.092;2023-03-03T01:19:26;101913.97;;;4.01;100.00
9784;BME280;4931;44.874;-1.092;2023-03-03T01:21:52;101915.44;;;3.97;100.00
9784;BME280;4931;44.874;-1.092;2023-03-03T01:24:17;101913.97;;;3.94;100.00
9784;BME280;4931;44.874;-1.092;2023-03-03T01:26:43;101920.00;;;3.90;100.00
9784;BME280;4931;44.874;-1.092;2023-03-03T01:29:08;101915.44;;;3.97;100.00
9784;BME280;4931;44.874;-1.092;2023-03-03T01:31:34;101913.13;;;4.01;100.00
9784;BME280;4931;44.874;-1.092;2023-03-03T01:34:00;101908.75;;;3.99;100.00
9784;BME280;4931;44.874;-1.092;2023-03-03T01:36:26;101909.16;;;4.03;100.00
9784;BME280;4931;44.874;-1.092;2023-03-03T01:38:53;101913.31;;;4.06;100.00
9784;BME280;4931;44.874;-1.092;2023-03-03T01:41:18;101920.66;;;4.05;100.00
9784;BME280;4931;44.874;-1.092;2023-03-03T01:43:46;101906.44;;;4.03;100.00
9784;BME280;4931;44.874;-1.092;2023-03-03T01:49:05;101912.50;;;4.05;100.00
9784;BME280;4931;44.874;-1.092;2023-03-03T01:51:35;101911.69;;;4.05;100.00
9784;BME280;4931;44.874;-1.092;2023-03-03T01:54:05;101913.13;;;4.07;100.00
9784;BME280;4931;44.874;-1.092;2023-03-03T01:56:34;101910.81;;;4.04;100.00
9784;BME280;4931;44.874;-1.092;2023-03-03T02:01:28;101907.88;;;3.99;100.00
9784;BME280;4931;44.874;-1.092;2023-03-03T02:03:56;101902.88;;;3.96;100.00
9784;BME280;4931;44.874;-1.092;2023-03-03T02:06:26;101908.31;;;3.96;100.00
9784;BME280;4931;44.874;-1.092;2023-03-03T02:11:24;101896.63;;;3.89;100.00
9784;BME280;4931;44.874;-1.092;2023-03-03T02:13:51;101894.53;;;3.97;100.00
9784;BME280;4931;44.874;-1.092;2023-03-03T02:16:17;101895.78;;;3.95;100.00
9784;BME280;4931;44.874;-1.092;2023-03-03T02:18:43;101898.28;;;3.90;100.00
9784;BME280;4931;44.874;-1.092;2023-03-03T02:21:13;101891.19;;;3.89;100.00
9784;BME280;4931;44.874;-1.092;2023-03-03T02:24:02;101897.44;;;3.82;100.00
9784;BME280;4931;44.874;-1.092;2023-03-03T02:26:33;101889.91;;;3.85;100.00
9784;BME280;4931;44.874;-1.092;2023-03-03T02:29:00;101883.66;;;3.84;100.00
9784;BME280;4931;44.874;-1.092;2023-03-03T02:31:28;101889.09;;;3.84;100.00
9784;BME280;4931;44.874;-1.092;2023-03-03T02:33:54;101888.47;;;3.89;100.00
9784;BME280;4931;44.874;-1.092;2023-03-03T02:36:32;101888.47;;;3.89;100.00
9784;BME280;4931;44.874;-1.092;2023-03-03T02:39:06;101889.53;;;3.88;100.00
9784;BME280;4931;44.874;-1.092;2023-03-03T02:42:26;101883.06;;;3.89;100.00
9784;BME280;4931;44.874;-1.092;2023-03-03T02:44:33;101882.00;;;3.90;100.00
9784;BME280;4931;44.874;-1.092;2023-03-03T02:46:59;101879.50;;;3.88;100.00
9784;BME280;4931;44.874;-1.092;2023-03-03T02:49:29;101879.91;;;3.85;100.00
9784;BME280;4931;44.874;-1.092;2023-03-03T02:51:56;101881.16;;;3.82;100.00
9784;BME280;4931;44.874;-1.092;2023-03-03T02:54:24;101869.44;;;3.75;100.00
9784;BME280;4931;44.874;-1.092;2023-03-03T02:56:51;101881.56;;;3.73;100.00
9784;BME280;4931;44.874;-1.092;2023-03-03T02:59:17;101877.38;;;3.70;100.00
9784;BME280;4931;44.874;-1.092;2023-03-03T03:01:44;101879.69;;;3.73;100.00
9784;BME280;4931;44.874;-1.092;2023-03-03T03:04:12;101879.47;;;3.75;100.00
9784;BME280;4931;44.874;-1.092;2023-03-03T03:06:39;101871.94;;;3.70;100.00
9784;BME280;4931;44.874;-1.092;2023-03-03T03:09:06;101874.88;;;3.75;100.00
9784;BME280;4931;44.874;-1.092;2023-03-03T03:11:32;101872.38;;;3.74;100.00
9784;BME280;4931;44.874;-1.092;2023-03-03T03:14:00;101878.44;;;3.76;100.00
9784;BME280;4931;44.874;-1.092;2023-03-03T03:16:26;101878.66;;;3.74;100.00
9784;BME280;4931;44.874;-1.092;2023-03-03T03:18:51;101875.09;;;3.80;100.00
9784;BME280;4931;44.874;-1.092;2023-03-03T03:21:17;101871.94;;;3.77;100.00
9784;BME280;4931;44.874;-1.092;2023-03-03T03:23:43;101873.22;;;3.81;100.00
9784;BME280;4931;44.874;-1.092;2023-03-03T03:26:09;101884.91;;;3.81;100.00
9784;BME280;4931;44.874;-1.092;2023-03-03T03:28:35;101874.06;;;3.81;100.00
9784;BME280;4931;44.874;-1.092;2023-03-03T03:31:01;101874.69;;;3.84;100.00
9784;BME280;4931;44.874;-1.092;2023-03-03T03:33:27;101861.09;;;3.77;100.00
9784;BME280;4931;44.874;-1.092;2023-03-03T03:35:53;101869.22;;;3.77;100.00
9784;BME280;4931;44.874;-1.092;2023-03-03T03:38:20;101868.63;;;3.81;100.00
9784;BME280;4931;44.874;-1.092;2023-03-03T03:40:46;101869.88;;;3.86;100.00
9784;BME280;4931;44.874;-1.092;2023-03-03T03:43:11;101861.94;;;3.84;100.00
9784;BME280;4931;44.874;-1.092;2023-03-03T03:45:37;101866.13;;;3.87;100.00
9784;BME280;4931;44.874;-1.092;2023-03-03T03:48:03;101860.28;;;3.90;100.00
9784;BME280;4931;44.874;-1.092;2023-03-03T03:50:28;101849.84;;;3.87;100.00
9784;BME280;4931;44.874;-1.092;2023-03-03T03:52:54;101854.84;;;3.90;100.00
9784;BME280;4931;44.874;-1.092;2023-03-03T03:55:19;101865.31;;;3.86;100.00
9784;BME280;4931;44.874;-1.092;2023-03-03T03:57:46;101857.16;;;3.86;100.00
9784;BME280;4931;44.874;-1.092;2023-03-03T04:00:12;101858.59;;;3.82;100.00
9784;BME280;4931;44.874;-1.092;2023-03-03T04:02:38;101862.16;;;3.82;100.00
9784;BME280;4931;44.874;-1.092;2023-03-03T04:05:04;101858.19;;;3.78;100.00
9784;BME280;4931;44.874;-1.092;2023-03-03T04:07:30;101854.41;;;3.79;100.00
9784;BME280;4931;44.874;-1.092;2023-03-03T04:09:56;101853.59;;;3.79;100.00
9784;BME280;4931;44.874;-1.092;2023-03-03T04:12:21;101852.13;;;3.76;100.00
9784;BME280;4931;44.874;-1.092;2023-03-03T04:14:47;101853.38;;;3.87;100.00
9784;BME280;4931;44.874;-1.092;2023-03-03T04:17:22;101846.69;;;3.90;100.00
9784;BME280;4931;44.874;-1.092;2023-03-03T04:19:52;101846.91;;;3.95;100.00
9784;BME280;4931;44.874;-1.092;2023-03-03T04:22:17;101845.22;;;3.87;100.00
9784;BME280;4931;44.874;-1.092;2023-03-03T04:24:43;101842.72;;;3.86;100.00
9784;BME280;4931;44.874;-1.092;2023-03-03T04:27:08;101838.34;;;3.78;100.00
9784;BME280;4931;44.874;-1.092;2023-03-03T04:29:34;101843.56;;;3.79;100.00
9784;BME280;4931;44.874;-1.092;2023-03-03T04:32:00;101859.00;;;3.79;100.00
9784;BME280;4931;44.874;-1.092;2023-03-03T04:34:26;101846.09;;;3.81;100.00
9784;BME280;4931;44.874;-1.092;2023-03-03T04:36:51;101846.91;;;3.81;100.00
9784;BME280;4931;44.874;-1.092;2023-03-03T04:39:17;101857.34;;;3.78;100.00
9784;BME280;4931;44.874;-1.092;2023-03-03T04:41:43;101859.44;;;3.69;100.00
9784;BME280;4931;44.874;-1.092;2023-03-03T04:44:08;101851.91;;;3.58;100.00
9784;BME280;4931;44.874;-1.092;2023-03-03T04:46:34;101857.53;;;3.63;100.00
9784;BME280;4931;44.874;-1.092;2023-03-03T04:48:59;101851.91;;;3.71;100.00
9784;BME280;4931;44.874;-1.092;2023-03-03T04:51:25;101848.81;;;3.74;100.00
9784;BME280;4931;44.874;-1.092;2023-03-03T04:53:50;101848.16;;;3.79;100.00
9784;BME280;4931;44.874;-1.092;2023-03-03T04:56:16;101846.91;;;3.75;100.00
9784;BME280;4931;44.874;-1.092;2023-03-03T04:58:41;101849.41;;;3.76;100.00
9784;BME280;4931;44.874;-1.092;2023-03-03T05:01:11;101843.56;;;3.79;100.00
9784;BME280;4931;44.874;-1.092;2023-03-03T05:03:37;101851.50;;;3.88;100.00
9784;BME280;4931;44.874;-1.092;2023-03-03T05:06:03;101846.91;;;3.88;100.00
9784;BME280;4931;44.874;-1.092;2023-03-03T05:08:28;101851.91;;;3.85;100.00
9784;BME280;4931;44.874;-1.092;2023-03-03T05:10:54;101848.59;;;3.89;100.00
9784;BME280;4931;44.874;-1.092;2023-03-03T05:13:20;101854.00;;;3.82;100.00
9784;BME280;4931;44.874;-1.092;2023-03-03T05:15:54;101857.78;;;3.81;100.00
9784;BME280;4931;44.874;-1.092;2023-03-03T05:18:21;101857.78;;;3.81;100.00
9784;BME280;4931;44.874;-1.092;2023-03-03T05:20:48;101852.97;;;3.84;100.00
9784;BME280;4931;44.874;-1.092;2023-03-03T05:23:14;101874.06;;;3.81;100.00
9784;BME280;4931;44.874;-1.092;2023-03-03T05:25:40;101877.38;;;3.77;100.00
9784;BME280;4931;44.874;-1.092;2023-03-03T05:28:07;101867.16;;;3.79;100.00
9784;BME280;4931;44.874;-1.092;2023-03-03T05:30:33;101867.38;;;3.77;100.00
9784;BME280;4931;44.874;-1.092;2023-03-03T05:32:59;101869.44;;;3.75;100.00
9784;BME280;4931;44.874;-1.092;2023-03-03T05:35:25;101872.81;;;3.77;100.00
9784;BME280;4931;44.874;-1.092;2023-03-03T05:37:50;101872.81;;;3.77;100.00
9784;BME280;4931;44.874;-1.092;2023-03-03T05:40:17;101881.56;;;3.79;100.00
9784;BME280;4931;44.874;-1.092;2023-03-03T05:42:43;101878.44;;;3.82;100.00
9784;BME280;4931;44.874;-1.092;2023-03-03T05:45:09;101863.63;;;3.85;100.00
9784;BME280;4931;44.874;-1.092;2023-03-03T05:47:35;101885.94;;;3.87;100.00
9784;BME280;4931;44.874;-1.092;2023-03-03T05:50:01;101881.97;;;3.76;100.00
9784;BME280;4931;44.874;-1.092;2023-03-03T05:52:27;101883.22;;;3.80;100.00
9784;BME280;4931;44.874;-1.092;2023-03-03T05:54:52;101880.94;;;3.77;100.00
9784;BME280;4931;44.874;-1.092;2023-03-03T05:57:18;101882.84;;;3.84;100.00
9784;BME280;4931;44.874;-1.092;2023-03-03T05:59:43;101886.16;;;3.86;100.00
9784;BME280;4931;44.874;-1.092;2023-03-03T06:02:09;101881.59;;;3.86;100.00
9784;BME280;4931;44.874;-1.092;2023-03-03T06:04:35;101886.38;;;3.84;100.00
9784;BME280;4931;44.874;-1.092;2023-03-03T06:07:00;101887.41;;;3.83;100.00
9784;BME280;4931;44.874;-1.092;2023-03-03T06:09:26;101883.66;;;3.77;100.00
9784;BME280;4931;44.874;-1.092;2023-03-03T06:11:52;101892.84;;;3.70;100.00
9784;BME280;4931;44.874;-1.092;2023-03-03T06:14:18;101884.91;;;3.68;100.00
9784;BME280;4931;44.874;-1.092;2023-03-03T06:16:46;101883.22;;;3.67;100.00
9784;BME280;4931;44.874;-1.092;2023-03-03T06:19:11;101881.53;;;3.66;100.00
9784;BME280;4931;44.874;-1.092;2023-03-03T06:21:37;101887.63;;;3.68;100.00
9784;BME280;4931;44.874;-1.092;2023-03-03T06:24:03;101887.84;;;3.73;100.00
9784;BME280;4931;44.874;-1.092;2023-03-03T06:26:30;101878.44;;;3.69;100.00
9784;BME280;4931;44.874;-1.092;2023-03-03T06:28:56;101878.44;;;3.69;100.00
9784;BME280;4931;44.874;-1.092;2023-03-03T06:31:21;101882.78;;;3.70;100.00
9784;BME280;4931;44.874;-1.092;2023-03-03T06:33:47;101879.47;;;3.61;100.00
9784;BME280;4931;44.874;-1.092;2023-03-03T06:36:12;101884.47;;;3.64;100.00
9784;BME280;4931;44.874;-1.092;2023-03-03T06:38:38;101881.97;;;3.63;100.00
9784;BME280;4931;44.874;-1.092;2023-03-03T06:41:04;101884.44;;;3.51;100.00
9784;BME280;4931;44.874;-1.092;2023-03-03T06:43:35;101876.91;;;3.53;100.00
9784;BME280;4931;44.874;-1.092;2023-03-03T06:46:01;101887.41;;;3.63;100.00
9784;BME280;4931;44.874;-1.092;2023-03-03T06:48:29;101885.94;;;3.67;100.00
9784;BME280;4931;44.874;-1.092;2023-03-03T06:50:55;101888.22;;;3.57;100.00
9784;BME280;4931;44.874;-1.092;2023-03-03T06:53:21;101884.88;;;3.61;100.00
9784;BME280;4931;44.874;-1.092;2023-03-03T06:55:47;101896.16;;;3.65;100.00
9784;BME280;4931;44.874;-1.092;2023-03-03T06:58:17;101898.47;;;3.68;100.00
9784;BME280;4931;44.874;-1.092;2023-03-03T07:00:52;101898.69;;;3.73;100.00
9784;BME280;4931;44.874;-1.092;2023-03-03T07:03:23;101908.91;;;3.71;100.00
9784;BME280;4931;44.874;-1.092;2023-03-03T07:05:49;101908.91;;;3.71;100.00
9784;BME280;4931;44.874;-1.092;2023-03-03T07:08:19;101909.94;;;3.70;100.00
9784;BME280;4931;44.874;-1.092;2023-03-03T07:10:45;101914.53;;;3.70;100.00
9784;BME280;4931;44.874;-1.092;2023-03-03T07:13:25;101917.03;;;3.71;100.00
9784;BME280;4931;44.874;-1.092;2023-03-03T07:16:00;101918.09;;;3.70;100.00
9784;BME280;4931;44.874;-1.092;2023-03-03T07:21:19;101925.38;;;3.63;100.00
9784;BME280;4931;44.874;-1.092;2023-03-03T07:23:48;101919.53;;;3.59;100.00
9784;BME280;4931;44.874;-1.092;2023-03-03T07:26:20;101931.41;;;3.52;100.00
9784;BME280;4931;44.874;-1.092;2023-03-03T07:29:23;101935.59;;;3.61;100.00
9784;BME280;4931;44.874;-1.092;2023-03-03T07:31:51;101938.53;;;3.66;100.00
9784;BME280;4931;44.874;-1.092;2023-03-03T07:36:43;101950.44;;;3.65;100.00
9784;BME280;4931;44.874;-1.092;2023-03-03T07:42:08;101956.06;;;3.70;100.00
9784;BME280;4931;44.874;-1.092;2023-03-03T07:44:39;101954.81;;;3.66;100.00
9784;BME280;4931;44.874;-1.092;2023-03-03T07:47:34;101958.41;;;3.73;100.00
9784;BME280;4931;44.874;-1.092;2023-03-03T07:50:14;101961.34;;;3.78;100.00
9784;BME280;4931;44.874;-1.092;2023-03-03T07:52:46;101958.44;;;3.87;100.00
9784;BME280;4931;44.874;-1.092;2023-03-03T07:55:30;101958.22;;;3.81;100.00
9784;BME280;4931;44.874;-1.092;2023-03-03T07:58:33;101965.75;;;3.93;100.00
9784;BME280;4931;44.874;-1.092;2023-03-03T08:03:34;101966.38;;;3.95;100.00
9784;BME280;4931;44.874;-1.092;2023-03-03T08:08:54;101972.22;;;3.98;100.00
9784;BME280;4931;44.874;-1.092;2023-03-03T08:11:23;101975.59;;;4.01;100.00
9784;BME280;4931;44.874;-1.092;2023-03-03T08:13:49;101965.13;;;3.91;100.00
9784;BME280;4931;44.874;-1.092;2023-03-03T08:18:43;101974.31;;;4.03;100.00
9784;BME280;4931;44.874;-1.092;2023-03-03T08:21:29;101979.34;;;4.06;100.00
9784;BME280;4931;44.874;-1.092;2023-03-03T08:23:56;101987.72;;;4.11;100.00
9784;BME280;4931;44.874;-1.092;2023-03-03T08:26:23;101984.16;;;4.18;100.00
9784;BME280;4931;44.874;-1.092;2023-03-03T08:28:50;101986.88;;;4.18;100.00
9784;BME280;4931;44.874;-1.092;2023-03-03T08:31:16;101989.78;;;4.16;100.00
9784;BME280;4931;44.874;-1.092;2023-03-03T08:33:45;101992.94;;;4.13;100.00
9784;BME280;4931;44.874;-1.092;2023-03-03T08:36:11;101994.41;;;4.15;100.00
9784;BME280;4931;44.874;-1.092;2023-03-03T08:38:37;101994.41;;;4.15;100.00
9784;BME280;4931;44.874;-1.092;2023-03-03T08:41:04;101993.97;;;4.19;100.00
9784;BME280;4931;44.874;-1.092;2023-03-03T08:43:30;101996.47;;;4.20;100.00
9784;BME280;4931;44.874;-1.092;2023-03-03T08:46:00;101994.00;;;4.32;100.00
9784;BME280;4931;44.874;-1.092;2023-03-03T08:48:27;101999.84;;;4.36;100.00
9784;BME280;4931;44.874;-1.092;2023-03-03T08:50:53;101998.59;;;4.38;100.00
9784;BME280;4931;44.874;-1.092;2023-03-03T08:53:19;102005.72;;;4.39;100.00
9784;BME280;4931;44.874;-1.092;2023-03-03T08:55:45;101998.81;;;4.43;100.00
9784;BME280;4931;44.874;-1.092;2023-03-03T08:58:12;101995.66;;;4.46;100.00
9784;BME280;4931;44.874;-1.092;2023-03-03T09:00:38;101998.00;;;4.49;100.00
9784;BME280;4931;44.874;-1.092;2023-03-03T09:03:04;101991.91;;;4.47;100.00
9784;BME280;4931;44.874;-1.092;2023-03-03T09:05:34;102002.78;;;4.47;100.00
9784;BME280;4931;44.874;-1.092;2023-03-03T09:08:00;102000.72;;;4.56;100.00
9784;BME280;4931;44.874;-1.092;2023-03-03T09:10:27;101993.59;;;4.62;100.00
9784;BME280;4931;44.874;-1.092;2023-03-03T09:12:55;101997.56;;;4.66;100.00
9784;BME280;4931;44.874;-1.092;2023-03-03T09:15:26;101990.84;;;4.75;100.00
9784;BME280;4931;44.874;-1.092;2023-03-03T09:17:53;101998.59;;;4.78;100.00
9784;BME280;4931;44.874;-1.092;2023-03-03T09:25:45;102003.19;;;4.98;100.00
9784;BME280;4931;44.874;-1.092;2023-03-03T09:28:26;102002.31;;;4.97;100.00
9784;BME280;4931;44.874;-1.092;2023-03-03T09:30:53;102013.63;;;5.01;100.00
9784;BME280;4931;44.874;-1.092;2023-03-03T09:33:58;102007.56;;;5.06;100.00
9784;BME280;4931;44.874;-1.092;2023-03-03T09:36:27;102011.53;;;5.03;100.00
9784;BME280;4931;44.874;-1.092;2023-03-03T09:38:55;102013.09;;;5.44;100.00
9784;BME280;4931;44.874;-1.092;2023-03-03T09:49:35;102019.22;;;5.26;100.00
9784;BME280;4931;44.874;-1.092;2023-03-03T10:03:58;102019.63;;;5.30;100.00
9784;BME280;4931;44.874;-1.092;2023-03-03T10:06:44;102015.63;;;5.39;100.00
9784;BME280;4931;44.874;-1.092;2023-03-03T10:17:47;102023.34;;;5.49;100.00
9784;BME280;4931;44.874;-1.092;2023-03-03T10:32:27;102032.78;;;5.92;100.00
9784;BME280;4931;44.874;-1.092;2023-03-03T10:35:22;102036.78;;;5.89;100.00
9784;BME280;4931;44.874;-1.092;2023-03-03T10:57:31;102033.72;;;6.50;100.00
9784;BME280;4931;44.874;-1.092;2023-03-03T11:08:33;102037.13;;;6.70;100.00
9784;BME280;4931;44.874;-1.092;2023-03-03T11:11:24;102042.13;;;6.73;100.00
9784;BME280;4931;44.874;-1.092;2023-03-03T11:14:18;102039.09;;;6.81;100.00
9784;BME280;4931;44.874;-1.092;2023-03-03T11:25:41;102033.25;;;7.03;100.00
9784;BME280;4931;44.874;-1.092;2023-03-03T11:28:28;102034.16;;;7.15;100.00
9784;BME280;4931;44.874;-1.092;2023-03-03T11:36:27;102034.41;;;7.32;100.00
9784;BME280;4931;44.874;-1.092;2023-03-03T11:39:06;102033.44;;;7.45;100.00
9784;BME280;4931;44.874;-1.092;2023-03-03T11:52:31;102024.94;;;8.33;100.00
9784;BME280;4931;44.874;-1.092;2023-03-03T11:55:16;102017.72;;;8.08;100.00
9784;BME280;4931;44.874;-1.092;2023-03-03T11:57:49;102022.84;;;8.17;100.00
9784;BME280;4931;44.874;-1.092;2023-03-03T12:00:27;102018.78;;;8.07;100.00
9784;BME280;4931;44.874;-1.092;2023-03-03T12:08:14;102016.66;;;8.09;100.00
9784;BME280;4931;44.874;-1.092;2023-03-03T12:13:24;102012.28;;;8.20;100.00
9784;BME280;4931;44.874;-1.092;2023-03-03T12:21:33;102010.00;;;8.47;100.00
9784;BME280;4931;44.874;-1.092;2023-03-03T12:35:08;102009.66;;;8.68;100.00
9784;BME280;4931;44.874;-1.092;2023-03-03T12:40:31;102001.69;;;8.66;100.00
9784;BME280;4931;44.874;-1.092;2023-03-03T12:45:39;102000.28;;;8.75;100.00
9784;BME280;4931;44.874;-1.092;2023-03-03T12:51:41;101990.75;;;9.02;100.00
9784;BME280;4931;44.874;-1.092;2023-03-03T12:54:04;101995.16;;;9.14;100.00
9784;BME280;4931;44.874;-1.092;2023-03-03T12:59:24;101978.50;;;9.04;100.00
9784;BME280;4931;44.874;-1.092;2023-03-03T13:04:35;101974.19;;;9.08;100.00
9784;BME280;4931;44.874;-1.092;2023-03-03T13:21:09;101966.53;;;9.34;100.00
9784;BME280;4931;44.874;-1.092;2023-03-03T13:26:28;101956.56;;;9.16;100.00
9784;BME280;4931;44.874;-1.092;2023-03-03T13:31:38;101958.28;;;9.05;100.00
9784;BME280;4931;44.874;-1.092;2023-03-03T13:34:07;101962.78;;;9.11;100.00
9784;BME280;4931;44.874;-1.092;2023-03-03T13:36:45;101960.13;;;9.28;100.00
9784;BME280;4931;44.874;-1.092;2023-03-03T13:39:24;101955.09;;;9.37;100.00
9784;BME280;4931;44.874;-1.092;2023-03-03T13:42:01;101953.78;;;9.40;100.00
9784;BME280;4931;44.874;-1.092;2023-03-03T13:44:33;101957.03;;;9.25;100.00
9784;BME280;4931;44.874;-1.092;2023-03-03T13:50:09;101951.19;;;9.33;100.00
9784;BME280;4931;44.874;-1.092;2023-03-03T13:55:43;101943.31;;;9.37;100.00
9784;BME280;4931;44.874;-1.092;2023-03-03T14:01:19;101941.28;;;9.32;100.00
9784;BME280;4931;44.874;-1.092;2023-03-03T14:03:59;101945.09;;;9.31;100.00
9784;BME280;4931;44.874;-1.092;2023-03-03T14:06:29;101943.91;;;9.39;100.00
9784;BME280;4931;44.874;-1.092;2023-03-03T14:09:11;101942.69;;;9.46;100.00
9784;BME280;4931;44.874;-1.092;2023-03-03T14:11:53;101941.72;;;9.53;100.00
9784;BME280;4931;44.874;-1.092;2023-03-03T14:14:46;101944.66;;;9.63;100.00
9784;BME280;4931;44.874;-1.092;2023-03-03T14:20:23;101942.78;;;9.80;100.00
9784;BME280;4931;44.874;-1.092;2023-03-03T14:23:15;101942.22;;;9.78;100.00
9784;BME280;4931;44.874;-1.092;2023-03-03T14:25:57;101933.81;;;9.68;100.00
9784;BME280;4931;44.874;-1.092;2023-03-03T14:28:26;101936.97;;;9.77;100.00
9784;BME280;4931;44.874;-1.092;2023-03-03T14:30:57;101927.97;;;9.64;100.00
9784;BME280;4931;44.874;-1.092;2023-03-03T14:33:28;101931.25;;;9.78;100.00
9784;BME280;4931;44.874;-1.092;2023-03-03T14:38:25;101923.53;;;9.92;100.00
9784;BME280;4931;44.874;-1.092;2023-03-03T14:41:19;101923.06;;;9.95;100.00
9784;BME280;4931;44.874;-1.092;2023-03-03T14:44:00;101920.66;;;9.70;100.00
9784;BME280;4931;44.874;-1.092;2023-03-03T14:49:00;101926.22;;;10.04;100.00
9784;BME280;4931;44.874;-1.092;2023-03-03T14:54:28;101919.22;;;9.96;100.00
9784;BME280;4931;44.874;-1.092;2023-03-03T14:59:35;101912.22;;;9.89;100.00
9784;BME280;4931;44.874;-1.092;2023-03-03T15:02:30;101914.09;;;10.00;100.00
9784;BME280;4931;44.874;-1.092;2023-03-03T15:07:45;101918.91;;;10.10;100.00
9784;BME280;4931;44.874;-1.092;2023-03-03T15:10:11;101924.59;;;10.37;100.00
9784;BME280;4931;44.874;-1.092;2023-03-03T15:12:40;101917.25;;;10.26;100.00
9784;BME280;4931;44.874;-1.092;2023-03-03T15:18:10;101917.16;;;10.04;100.00
9784;BME280;4931;44.874;-1.092;2023-03-03T15:20:41;101917.31;;;9.97;100.00
9784;BME280;4931;44.874;-1.092;2023-03-03T15:23:26;101914.25;;;10.10;100.00
9784;BME280;4931;44.874;-1.092;2023-03-03T15:42:36;101906.09;;;9.82;100.00
9784;BME280;4931;44.874;-1.092;2023-03-03T15:45:29;101911.22;;;9.78;100.00
9784;BME280;4931;44.874;-1.092;2023-03-03T15:56:15;101911.97;;;9.73;100.00
9784;BME280;4931;44.874;-1.092;2023-03-03T15:59:08;101915.19;;;9.70;100.00
9784;BME280;4931;44.874;-1.092;2023-03-03T16:01:56;101920.84;;;9.80;100.00
9784;BME280;4931;44.874;-1.092;2023-03-03T16:04:28;101914.91;;;9.84;100.00
9784;BME280;4931;44.874;-1.092;2023-03-03T16:07:45;101915.38;;;9.80;100.00
9784;BME280;4931;44.874;-1.092;2023-03-03T16:10:09;101914.31;;;9.82;100.00
9784;BME280;4931;44.874;-1.092;2023-03-03T16:12:46;101921.56;;;9.88;100.00
9784;BME280;4931;44.874;-1.092;2023-03-03T16:15:35;101916.22;;;9.81;100.00
9784;BME280;4931;44.874;-1.092;2023-03-03T16:18:27;101918.06;;;9.92;100.00
9784;BME280;4931;44.874;-1.092;2023-03-03T16:26:09;101922.72;;;9.92;100.00
9784;BME280;4931;44.874;-1.092;2023-03-03T16:31:25;101926.81;;;9.60;100.00
9784;BME280;4931;44.874;-1.092;2023-03-03T16:44:46;101935.22;;;9.42;100.00
9784;BME280;4931;44.874;-1.092;2023-03-03T17:07:11;101955.38;;;9.24;100.00
9784;BME280;4931;44.874;-1.092;2023-03-03T17:20:52;101972.44;;;9.14;100.00
9784;BME280;4931;44.874;-1.092;2023-03-03T17:23:45;101979.22;;;9.11;100.00
9784;BME280;4931;44.874;-1.092;2023-03-03T17:32:13;101979.44;;;8.98;100.00
9784;BME280;4931;44.874;-1.092;2023-03-03T17:35:07;101983.63;;;8.89;100.00
9784;BME280;4931;44.874;-1.092;2023-03-03T17:45:43;101990.16;;;8.64;100.00
9784;BME280;4931;44.874;-1.092;2023-03-03T17:48:24;101999.78;;;8.55;100.00
9784;BME280;4931;44.874;-1.092;2023-03-03T18:10:38;102041.91;;;7.74;100.00
9784;BME280;4931;44.874;-1.092;2023-03-03T18:16:49;102045.56;;;7.50;100.00
9784;BME280;4931;44.874;-1.092;2023-03-03T18:22:28;102047.88;;;7.34;100.00
9784;BME280;4931;44.874;-1.092;2023-03-03T18:25:08;102057.09;;;7.33;100.00
9784;BME280;4931;44.874;-1.092;2023-03-03T18:27:36;102062.84;;;7.25;100.00
9784;BME280;4931;44.874;-1.092;2023-03-03T18:32:46;102068.72;;;7.03;100.00
9784;BME280;4931;44.874;-1.092;2023-03-03T18:35:34;102067.50;;;6.99;100.00
9784;BME280;4931;44.874;-1.092;2023-03-03T18:41:03;102077.09;;;6.83;100.00
9784;BME280;4931;44.874;-1.092;2023-03-03T18:49:00;102083.31;;;6.65;100.00
9784;BME280;4931;44.874;-1.092;2023-03-03T19:04:40;102104.81;;;6.16;100.00
9784;BME280;4931;44.874;-1.092;2023-03-03T19:07:15;102096.06;;;5.94;100.00
9784;BME280;4931;44.874;-1.092;2023-03-03T19:09:47;102103.84;;;5.84;100.00
9784;BME280;4931;44.874;-1.092;2023-03-03T19:12:17;102101.38;;;5.75;100.00
9784;BME280;4931;44.874;-1.092;2023-03-03T19:14:46;102102.63;;;5.73;100.00
9784;BME280;4931;44.874;-1.092;2023-03-03T19:20:09;102104.13;;;5.62;100.00